Winchester, Texas
Current Conditions -  °F | °C
As of 8:50 AM on Wednesday 26 Nov 2014 (Local Time) from K3T5 Reporting Station
Clear Clear  
Wind Chill: 54°   Ceiling: Unl
Heat Index: 54°   Visibility: 10mi
Dew Point: 36°   Wind: 10mph
Humidity: 51%   Direction: 230°SW
Pressure: 30.21"   Gusts: 16mph
Location:  29.8569°N, 96.9311°W
Report Text: K3T5 261450Z AUTO 23009G14KT 10SM CLR 12/02 A3021 RMK AO2 T01200022
Loading
Personal Weather Stations






























Interactive Weather Map New forecast layout! Learn more

10-Day Weather Forecast

Advertisements
Track Severe Weather on mobile